createdAt,value
2018-02-15T04:32:34.687Z,1.00
2018-02-15T04:35:08.511Z,0.80
2018-02-15T04:37:42.336Z,0.90
2018-02-15T04:40:16.143Z,0.90
2018-02-15T04:42:50.067Z,1.00
2018-02-15T04:45:23.940Z,1.00
2018-02-15T04:47:58.488Z,1.10
2018-02-15T04:50:33.966Z,1.10
2018-02-15T04:53:08.053Z,1.20
2018-02-15T04:55:41.783Z,1.20
2018-02-15T04:58:35.363Z,1.20
2018-02-15T05:01:09.095Z,1.20
2018-02-15T05:03:42.939Z,1.20
2018-02-15T05:06:16.724Z,1.20
2018-02-15T05:08:51.279Z,1.20
2018-02-15T05:11:25.156Z,1.20
2018-02-15T05:13:59.115Z,1.20
2018-02-15T05:16:32.983Z,1.20
2018-02-15T05:19:06.758Z,1.20
2018-02-15T05:21:40.694Z,1.20
2018-02-15T05:24:14.458Z,1.20
2018-02-15T05:26:48.326Z,1.30
2018-02-15T05:29:22.969Z,1.30
2018-02-15T05:31:57.613Z,1.30
2018-02-15T05:34:31.475Z,1.30
2018-02-15T05:37:05.341Z,1.40
2018-02-15T05:39:39.831Z,1.40
2018-02-15T05:42:14.390Z,1.40
2018-02-15T05:44:48.088Z,1.40
2018-02-15T05:47:21.915Z,1.40
2018-02-15T05:49:56.476Z,1.50
2018-02-15T05:52:30.247Z,1.50
2018-02-15T05:55:04.065Z,1.50
2018-02-15T05:57:38.173Z,1.50
2018-02-15T06:00:12.781Z,1.50
2018-02-15T06:02:46.784Z,1.50
2018-02-15T06:05:20.610Z,1.60
2018-02-15T06:07:55.284Z,1.60
2018-02-15T06:10:29.135Z,1.50
2018-02-15T06:13:02.955Z,1.60
2018-02-15T06:15:37.627Z,1.60
2018-02-15T06:18:12.182Z,1.60
2018-02-15T06:20:46.776Z,1.60
2018-02-15T06:23:21.576Z,1.60
2018-02-15T06:25:56.566Z,1.70
2018-02-15T06:28:30.600Z,1.70
2018-02-15T06:31:04.411Z,1.80
2018-02-15T06:33:40.099Z,1.80
2018-02-15T06:36:13.759Z,1.70
2018-02-15T06:38:47.464Z,1.80
2018-02-15T06:41:21.244Z,1.80
2018-02-15T06:43:55.042Z,1.80
2018-02-15T06:46:28.849Z,1.80
2018-02-15T06:49:02.684Z,1.80
2018-02-15T06:51:37.160Z,1.80
2018-02-15T06:54:11.025Z,1.80
2018-02-15T06:56:44.891Z,1.80
2018-02-15T06:59:19.528Z,1.80
2018-02-15T07:01:54.719Z,1.80
2018-02-15T07:04:29.348Z,1.80
2018-02-15T07:07:03.870Z,1.90
2018-02-15T07:09:38.556Z,1.90
2018-02-15T07:12:19.067Z,1.90
2018-02-15T07:14:52.916Z,1.90
2018-02-15T07:17:26.693Z,2.00
2018-02-15T07:20:01.206Z,2.00
2018-02-15T07:22:35.851Z,2.00
2018-02-15T07:25:10.392Z,2.00
2018-02-15T07:27:44.187Z,2.00
2018-02-15T07:30:18.084Z,2.10
2018-02-15T07:32:51.885Z,2.10
2018-02-15T07:35:25.728Z,2.10
2018-02-15T07:37:59.551Z,2.10
2018-02-15T07:40:34.142Z,2.10
2018-02-15T07:43:08.747Z,2.20
2018-02-15T07:45:43.152Z,2.20
2018-02-15T07:48:17.484Z,2.20
2018-02-15T07:50:52.002Z,2.30
2018-02-15T07:53:26.016Z,2.30
2018-02-15T07:55:59.725Z,2.40
2018-02-15T07:58:34.408Z,2.30
2018-02-15T08:01:09.184Z,2.30
2018-02-15T08:03:44.323Z,2.30
2018-02-15T08:06:18.040Z,2.30
2018-02-15T08:08:51.832Z,2.30
2018-02-15T08:11:25.670Z,2.40
2018-02-15T08:14:00.173Z,2.50
2018-02-15T08:16:34.679Z,2.50
2018-02-15T08:19:08.784Z,2.50
2018-02-15T08:21:42.608Z,2.60
2018-02-15T08:24:17.431Z,2.50
2018-02-15T08:26:53.493Z,2.40
2018-02-15T08:29:27.289Z,2.40
2018-02-15T08:32:01.062Z,2.30
2018-02-15T08:34:34.956Z,2.30
2018-02-15T08:37:08.743Z,2.30
2018-02-15T08:39:44.080Z,2.10
2018-02-15T08:42:17.846Z,2.10
2018-02-15T08:44:52.503Z,2.10
2018-02-15T08:47:27.093Z,2.20
2018-02-15T08:50:00.880Z,2.10
2018-02-15T08:52:36.244Z,2.20
2018-02-15T08:55:10.701Z,2.20
2018-02-15T08:57:44.475Z,2.10
2018-02-15T09:00:19.054Z,2.20
2018-02-15T09:02:52.827Z,2.10
2018-02-15T09:05:26.672Z,2.00
2018-02-15T09:08:01.228Z,2.00
2018-02-15T09:10:35.154Z,2.00
2018-02-15T09:13:09.684Z,2.20
2018-02-15T09:15:43.539Z,2.20
2018-02-15T09:18:17.407Z,2.10
2018-02-15T09:20:51.455Z,2.00
2018-02-15T09:23:25.456Z,2.00
2018-02-15T09:25:59.987Z,2.00
2018-02-15T09:28:33.781Z,2.00
2018-02-15T09:31:07.613Z,1.90
2018-02-15T09:33:41.259Z,1.80
2018-02-15T09:36:15.118Z,2.00
2018-02-15T09:38:49.684Z,2.10
2018-02-15T09:41:23.548Z,2.10
2018-02-15T09:43:57.254Z,2.20
2018-02-15T09:46:32.028Z,2.10
2018-02-15T09:49:07.691Z,2.40
2018-02-15T09:51:41.482Z,2.40
2018-02-15T09:54:15.512Z,2.30
2018-02-15T09:56:49.330Z,2.40
2018-02-15T09:59:23.135Z,2.50
2018-02-15T10:01:56.924Z,2.60
2018-02-15T10:04:30.647Z,2.60
2018-02-15T10:07:04.555Z,2.70
2018-02-15T10:09:38.391Z,2.70
2018-02-15T10:12:12.981Z,2.80
2018-02-15T10:14:46.666Z,2.80
2018-02-15T10:17:20.498Z,2.90
2018-02-15T10:19:54.497Z,3.00
2018-02-15T10:22:28.260Z,3.10
2018-02-15T10:25:02.016Z,3.10
2018-02-15T10:27:36.009Z,3.10
2018-02-15T10:30:09.858Z,3.00
2018-02-15T10:32:43.716Z,3.00
2018-02-15T10:35:21.291Z,3.10
2018-02-15T10:37:55.363Z,3.10
2018-02-15T10:40:29.147Z,3.20
2018-02-15T10:43:02.989Z,3.30
2018-02-15T10:45:36.856Z,3.40
2018-02-15T10:48:10.705Z,3.50
2018-02-15T10:50:44.359Z,3.50
2018-02-15T10:53:19.415Z,3.60
2018-02-15T10:55:55.516Z,3.50
2018-02-15T10:58:29.481Z,3.60
2018-02-15T11:01:08.901Z,3.80
2018-02-15T11:03:44.360Z,3.80
2018-02-15T11:06:18.064Z,3.80
2018-02-15T11:08:52.680Z,3.90
2018-02-15T11:11:27.159Z,3.90
2018-02-15T11:14:01.740Z,4.00
2018-02-15T11:16:35.514Z,3.90
2018-02-15T11:19:09.376Z,4.00
2018-02-15T11:21:43.111Z,4.00
2018-02-15T11:24:17.020Z,4.00
2018-02-15T11:26:50.737Z,4.00
2018-02-15T11:29:24.614Z,3.90
2018-02-15T11:31:58.415Z,3.80
2018-02-15T11:34:32.366Z,3.90
2018-02-15T11:37:06.236Z,3.90
2018-02-15T11:39:39.890Z,4.00
2018-02-15T11:42:14.003Z,4.10
2018-02-15T11:44:47.704Z,4.10
2018-02-15T11:47:22.400Z,4.20
2018-02-15T11:49:56.138Z,4.20
2018-02-15T11:52:30.073Z,4.20
2018-02-15T11:55:03.992Z,4.20
2018-02-15T11:57:37.740Z,4.20
2018-02-15T12:00:11.565Z,4.20
2018-02-15T12:02:46.421Z,4.20
2018-02-15T12:05:20.209Z,4.20
2018-02-15T12:07:54.017Z,4.20
2018-02-15T12:10:27.805Z,4.20
2018-02-15T12:13:02.447Z,4.20
2018-02-15T12:15:36.192Z,4.20
2018-02-15T12:18:10.847Z,4.20
2018-02-15T12:20:44.631Z,4.20
2018-02-15T12:23:18.299Z,4.30
2018-02-15T12:25:52.099Z,4.30
2018-02-15T12:28:25.929Z,4.40
2018-02-15T12:30:59.725Z,4.40
2018-02-15T12:33:34.472Z,4.40
2018-02-15T12:36:11.292Z,4.40
2018-02-15T12:38:45.010Z,4.40
2018-02-15T12:41:18.820Z,4.40
2018-02-15T12:43:53.743Z,4.60
2018-02-15T12:46:27.565Z,4.60
2018-02-15T12:49:01.373Z,4.60
2018-02-15T12:51:35.184Z,4.60
2018-02-15T12:54:12.667Z,4.90
2018-02-15T12:56:47.232Z,4.90
2018-02-15T12:59:21.267Z,4.90
2018-02-15T13:01:55.776Z,4.90
2018-02-15T13:04:30.707Z,4.90
2018-02-15T13:07:04.400Z,5.00
2018-02-15T13:09:38.327Z,5.10
2018-02-15T13:15:22.301Z,5.20
2018-02-15T13:17:56.155Z,5.30
2018-02-15T13:20:30.007Z,5.30
2018-02-15T13:23:05.600Z,5.30
2018-02-15T13:25:39.419Z,5.30
2018-02-15T13:28:25.176Z,5.30
2018-02-15T13:31:01.110Z,5.20
2018-02-15T13:33:34.820Z,5.20
2018-02-15T13:36:09.080Z,5.20
2018-02-15T13:38:43.653Z,5.30
2018-02-15T13:41:17.713Z,5.20
2018-02-15T13:43:52.275Z,5.20
2018-02-15T13:46:26.834Z,5.20
2018-02-15T13:49:00.530Z,5.10
2018-02-15T13:51:34.370Z,5.10
2018-02-15T13:54:08.204Z,5.10
2018-02-15T13:56:42.042Z,5.10
2018-02-15T13:59:16.546Z,5.20
2018-02-15T14:01:50.411Z,5.20
2018-02-15T14:04:25.096Z,5.20
2018-02-15T14:06:58.945Z,5.10
2018-02-15T14:09:33.533Z,5.10
2018-02-15T14:12:07.264Z,5.10
2018-02-15T14:14:41.483Z,5.20
2018-02-15T14:17:15.972Z,5.20
2018-02-15T14:19:50.527Z,5.40
2018-02-15T14:22:24.260Z,5.30
2018-02-15T14:24:58.106Z,5.40
2018-02-15T14:27:31.955Z,5.50
2018-02-15T14:30:05.753Z,5.40
2018-02-15T14:32:40.255Z,5.60
2018-02-15T14:35:14.102Z,5.50
2018-02-15T14:37:47.925Z,5.40
2018-02-15T14:40:22.633Z,5.60
2018-02-15T14:42:56.460Z,5.60
2018-02-15T14:45:31.028Z,5.80
2018-02-15T14:48:04.723Z,5.70
2018-02-15T14:50:40.242Z,5.90
2018-02-15T14:53:13.984Z,5.90
2018-02-15T14:55:48.003Z,6.00
2018-02-15T14:58:21.707Z,6.10
2018-02-15T15:00:55.569Z,6.10
2018-02-15T15:03:31.401Z,6.10
2018-02-15T15:06:05.047Z,6.00
2018-02-15T15:08:38.863Z,5.90
2018-02-15T15:11:12.566Z,6.00
2018-02-15T15:13:46.356Z,6.00
2018-02-15T15:16:20.726Z,6.00
2018-02-15T15:18:54.442Z,5.90
2018-02-15T15:21:29.295Z,5.80
2018-02-15T15:24:02.890Z,5.80
2018-02-15T15:26:37.481Z,5.80
2018-02-15T15:29:11.436Z,5.80
2018-02-15T15:31:45.256Z,5.70
2018-02-15T15:34:18.999Z,5.70
2018-02-15T15:36:52.828Z,5.70
2018-02-15T15:39:26.564Z,5.60
2018-02-15T15:42:00.275Z,5.60
2018-02-15T15:44:34.215Z,5.50
2018-02-15T15:47:08.324Z,5.40
2018-02-15T15:49:43.297Z,5.40
2018-02-15T15:52:18.103Z,5.40
2018-02-15T15:54:52.684Z,5.30
2018-02-15T15:57:26.456Z,5.30
2018-02-15T16:00:00.236Z,5.30
2018-02-15T16:02:34.183Z,5.30
2018-02-15T16:05:08.033Z,5.40
2018-02-15T16:07:42.036Z,5.40
2018-02-15T16:10:15.707Z,5.40
2018-02-15T16:12:49.499Z,5.40
2018-02-15T16:15:23.341Z,5.40
2018-02-15T16:17:57.071Z,5.30
2018-02-15T16:20:30.827Z,5.30
2018-02-15T16:23:05.470Z,5.30
2018-02-15T16:25:39.211Z,5.30
2018-02-15T16:28:12.934Z,5.30
2018-02-15T16:30:46.697Z,5.30
2018-02-15T16:33:20.435Z,5.30
2018-02-15T16:35:54.333Z,5.40
2018-02-15T16:38:28.060Z,5.40
2018-02-15T16:41:02.810Z,5.50
2018-02-15T16:43:37.320Z,5.60
2018-02-15T16:46:11.143Z,5.60
2018-02-15T16:48:44.919Z,5.60
2018-02-15T16:51:19.651Z,5.60
2018-02-15T16:53:53.443Z,5.70
2018-02-15T16:56:27.221Z,5.70
2018-02-15T16:59:01.345Z,5.70
2018-02-15T17:01:35.129Z,5.70
2018-02-15T17:04:09.967Z,5.50
2018-02-15T17:06:43.747Z,5.40
2018-02-15T17:09:18.300Z,5.20
2018-02-15T17:11:52.785Z,5.10
2018-02-15T17:14:26.827Z,5.10
2018-02-15T17:17:01.359Z,5.10
2018-02-15T17:19:35.099Z,5.10
2018-02-15T17:22:08.881Z,5.10
2018-02-15T17:24:43.496Z,5.10
2018-02-15T17:27:17.297Z,5.10
2018-02-15T17:29:51.327Z,5.10
2018-02-15T17:32:25.890Z,5.10
2018-02-15T17:34:59.679Z,5.10
2018-02-15T17:37:33.482Z,5.10
2018-02-15T17:40:08.100Z,5.10
2018-02-15T17:42:41.899Z,5.10
2018-02-15T17:45:15.764Z,5.10
2018-02-15T17:47:50.229Z,5.30
2018-02-15T17:50:24.143Z,5.20
2018-02-15T17:52:57.900Z,5.30
2018-02-15T17:55:31.794Z,5.30
2018-02-15T17:58:05.596Z,5.40
2018-02-15T18:00:39.480Z,5.50
2018-02-15T18:03:14.470Z,5.50
2018-02-15T18:05:48.193Z,5.50
2018-02-15T18:08:21.939Z,5.50
2018-02-15T18:10:55.738Z,5.50
2018-02-15T18:13:29.477Z,5.50
2018-02-15T18:16:03.914Z,5.60
2018-02-15T18:18:38.443Z,5.60
2018-02-15T18:21:13.560Z,5.60
2018-02-15T18:23:47.383Z,5.60
2018-02-15T18:26:21.228Z,5.60
2018-02-15T18:28:55.016Z,5.40
2018-02-15T18:31:28.809Z,5.30
2018-02-15T18:34:02.637Z,5.30
2018-02-15T18:36:37.894Z,5.20
2018-02-15T18:39:11.867Z,5.20
2018-02-15T18:41:45.588Z,5.20
2018-02-15T18:44:19.483Z,5.20
2018-02-15T18:46:53.301Z,5.30
2018-02-15T18:49:27.885Z,5.20
2018-02-15T18:52:01.618Z,5.20
2018-02-15T18:54:35.420Z,5.30
2018-02-15T18:57:09.273Z,5.30
2018-02-15T18:59:43.702Z,5.20
2018-02-15T19:02:17.665Z,5.30
2018-02-15T19:04:51.482Z,5.30
2018-02-15T19:07:25.336Z,5.40
2018-02-15T19:09:59.976Z,5.30
2018-02-15T19:12:33.781Z,5.30
2018-02-15T19:15:07.855Z,5.40
2018-02-15T19:17:41.755Z,5.40
2018-02-15T19:20:15.607Z,5.40
2018-02-15T19:22:49.747Z,5.40
2018-02-15T19:25:23.426Z,5.40
2018-02-15T19:27:58.081Z,5.40
2018-02-15T19:30:31.764Z,5.40
2018-02-15T19:33:05.536Z,5.40
2018-02-15T19:35:40.123Z,5.40
2018-02-15T19:38:13.810Z,5.40
2018-02-15T19:40:48.432Z,5.50
2018-02-15T19:43:22.106Z,5.40
2018-02-15T19:45:55.994Z,5.50
2018-02-15T19:48:29.761Z,5.50
2018-02-15T19:51:03.756Z,5.60
2018-02-15T19:53:37.556Z,5.50
2018-02-15T19:56:11.302Z,5.50
2018-02-15T19:58:45.872Z,5.50
2018-02-15T20:01:19.748Z,5.40
2018-02-15T20:03:54.317Z,5.40
2018-02-15T20:06:28.797Z,5.40
2018-02-15T20:09:02.544Z,5.40
2018-02-15T20:11:36.217Z,5.40
2018-02-15T20:14:10.081Z,5.40
2018-02-15T20:16:43.877Z,5.50
2018-02-15T20:19:17.879Z,5.40
2018-02-15T20:21:51.650Z,5.50
2018-02-15T20:24:25.374Z,5.50
2018-02-15T20:27:05.639Z,5.50
2018-02-15T20:29:39.422Z,5.50
2018-02-15T20:32:14.816Z,5.50
2018-02-15T20:34:49.403Z,5.60
2018-02-15T20:37:25.227Z,5.60
2018-02-15T20:40:04.759Z,5.60
2018-02-15T20:42:39.040Z,5.60
2018-02-15T20:45:12.768Z,5.60
2018-02-15T20:47:46.531Z,5.60
2018-02-15T20:50:25.990Z,5.60
2018-02-15T20:56:00.499Z,5.60
2018-02-15T20:58:34.280Z,5.70
2018-02-15T21:01:08.109Z,5.60
2018-02-15T21:03:42.235Z,5.70
2018-02-15T21:06:16.059Z,5.70
2018-02-15T21:08:49.907Z,5.70
2018-02-15T21:11:24.488Z,5.80
2018-02-15T21:13:58.344Z,5.80
2018-02-15T21:16:33.314Z,5.70
2018-02-15T21:19:07.156Z,5.70
2018-02-15T21:21:41.632Z,5.80
2018-02-15T21:24:16.168Z,5.80
2018-02-15T21:26:49.978Z,5.80
2018-02-15T21:29:23.812Z,5.70
2018-02-15T21:31:57.597Z,5.70
2018-02-15T21:34:32.951Z,5.60
2018-02-15T21:37:07.511Z,5.50
2018-02-15T21:39:41.984Z,5.50
2018-02-15T21:42:16.578Z,5.50
2018-02-15T21:44:50.402Z,5.50
2018-02-15T21:47:24.256Z,5.50
2018-02-15T21:49:57.971Z,5.50
2018-02-15T21:52:31.828Z,5.50
2018-02-15T21:55:05.675Z,5.50
2018-02-15T21:57:39.744Z,5.50
